Eatonville, WA (98328)

9:47 PM PST on February 20, 2017 (GMT -0800)
Central Eatonville | | Change Station

Elev 850 ft 46.87 °N, 122.27 °W | Updated 35 seconds ago

Mostly Cloudy
Mostly Cloudy
40.7 °F
Feels Like 41 °F
N
0.0
Wind Variable Wind from North
Gusts 0.0 mph

Today
High -- | Low -- °F
--% Chance of Precip.
Yesterday
High -- | Low -- °F
Precip. -- in
Pressure 29.71 in
Visibility 5.0 miles
Clouds
Windchill 41 °F
Dew Point 40 °F
Humidity 96%
Rainfall 0.00 in
Snow Depth Not available.
7:04 AM 5:41 PM
Waning Crescent, 28% visible
METAR KPLU 210535Z AUTO 00000KT 5SM BR 06/06 A2971 RMK AO2
Pressure 29.71 in
Visibility 5.0 miles
Clouds
Windchill 41 °F
Dew Point 40 °F
Humidity 96%
Rainfall 0.00 in
Snow Depth Not available.
7:04 AM 5:41 PM
Waning Crescent, 28% visible
METAR KPLU 210535Z AUTO 00000KT 5SM BR 06/06 A2971 RMK AO2

Get Your Daily Forecast Email!

Thanks for signing up!

Be on the lookout for a verification email in your inbox.

You'll start receiving the daily forecast at 8 AM.

×

10-Day Weather Forecast

Almanac

Astronomy

Feb. 20, 2017 Rise Set
Actual Time
Civil Twilight
Nautical Twilight
Astronomical Twilight
Moon
Length of Visible Light
Length of Day
Tomorrow will be .
, % of the Moon is Illuminated

Today's Extremes

State Highs State Lows

Community

WunderPhotos

Upload Photos

1,962,540 photos uploaded!

WunderBlog® & News

Nearby

Air Quality

  Air Quality AQ Index Pollutant
Not available.

Snow Depth

Station Depth Elevation

Earthquake Activity

City Distance Mag. Time & Date
Minimum magnitude displayed is 2.5.

Coastal Water Temperatures

Place Temperature

Stations

Nearby Weather Stations

Station Location Temp. Windchill Dew Point Humidity Wind Precip. Elev Updated Type
                   

Watches & Warnings

There are currently no watches in effect.